sensor_id;sensor_type;location;lat;lon;timestamp;P1;durP1;ratioP1;P2;durP2;ratioP2
41061;SDS011;26812;42.662;23.352;2023-05-10T00:00:11;5.03;;;3.72;;
41061;SDS011;26812;42.662;23.352;2023-05-10T00:02:37;5.10;;;3.95;;
41061;SDS011;26812;42.662;23.352;2023-05-10T00:05:02;5.90;;;4.30;;
41061;SDS011;26812;42.662;23.352;2023-05-10T00:07:28;6.78;;;4.43;;
41061;SDS011;26812;42.662;23.352;2023-05-10T00:09:53;5.78;;;4.53;;
41061;SDS011;26812;42.662;23.352;2023-05-10T00:12:19;6.78;;;4.22;;
41061;SDS011;26812;42.662;23.352;2023-05-10T00:14:44;7.20;;;5.78;;
41061;SDS011;26812;42.662;23.352;2023-05-10T00:17:10;4.90;;;4.03;;
41061;SDS011;26812;42.662;23.352;2023-05-10T00:19:35;4.47;;;3.83;;
41061;SDS011;26812;42.662;23.352;2023-05-10T00:22:00;5.85;;;4.45;;
41061;SDS011;26812;42.662;23.352;2023-05-10T00:24:26;4.78;;;4.13;;
41061;SDS011;26812;42.662;23.352;2023-05-10T00:26:52;5.60;;;4.47;;
41061;SDS011;26812;42.662;23.352;2023-05-10T00:29:17;5.40;;;4.18;;
41061;SDS011;26812;42.662;23.352;2023-05-10T00:31:42;5.32;;;4.38;;
41061;SDS011;26812;42.662;23.352;2023-05-10T00:34:08;5.78;;;4.15;;
41061;SDS011;26812;42.662;23.352;2023-05-10T00:36:33;6.72;;;5.00;;
41061;SDS011;26812;42.662;23.352;2023-05-10T00:38:58;7.07;;;5.32;;
41061;SDS011;26812;42.662;23.352;2023-05-10T00:41:24;6.68;;;4.75;;
41061;SDS011;26812;42.662;23.352;2023-05-10T00:43:50;6.93;;;5.50;;
41061;SDS011;26812;42.662;23.352;2023-05-10T00:46:15;4.97;;;4.47;;
41061;SDS011;26812;42.662;23.352;2023-05-10T00:48:41;6.82;;;6.10;;
41061;SDS011;26812;42.662;23.352;2023-05-10T00:51:08;6.22;;;5.03;;
41061;SDS011;26812;42.662;23.352;2023-05-10T00:53:34;6.53;;;5.40;;
41061;SDS011;26812;42.662;23.352;2023-05-10T00:56:00;9.77;;;5.45;;
41061;SDS011;26812;42.662;23.352;2023-05-10T00:58:26;7.65;;;5.75;;
41061;SDS011;26812;42.662;23.352;2023-05-10T01:00:54;5.70;;;4.63;;
41061;SDS011;26812;42.662;23.352;2023-05-10T01:03:27;6.82;;;5.05;;
41061;SDS011;26812;42.662;23.352;2023-05-10T01:05:53;6.68;;;5.03;;
41061;SDS011;26812;42.662;23.352;2023-05-10T01:08:18;6.25;;;5.10;;
41061;SDS011;26812;42.662;23.352;2023-05-10T01:10:44;7.43;;;5.25;;
41061;SDS011;26812;42.662;23.352;2023-05-10T01:13:10;8.18;;;5.97;;
41061;SDS011;26812;42.662;23.352;2023-05-10T01:15:44;6.03;;;5.43;;
41061;SDS011;26812;42.662;23.352;2023-05-10T01:18:11;5.75;;;5.13;;
41061;SDS011;26812;42.662;23.352;2023-05-10T01:20:39;8.80;;;5.53;;
41061;SDS011;26812;42.662;23.352;2023-05-10T01:34:16;6.35;;;4.15;;
41061;SDS011;26812;42.662;23.352;2023-05-10T01:36:51;6.05;;;4.68;;
41061;SDS011;26812;42.662;23.352;2023-05-10T01:40:30;7.38;;;4.72;;
41061;SDS011;26812;42.662;23.352;2023-05-10T01:42:54;4.75;;;4.22;;
41061;SDS011;26812;42.662;23.352;2023-05-10T01:48:16;5.13;;;4.07;;
41061;SDS011;26812;42.662;23.352;2023-05-10T01:50:43;5.53;;;4.05;;
41061;SDS011;26812;42.662;23.352;2023-05-10T01:53:11;3.97;;;3.58;;
41061;SDS011;26812;42.662;23.352;2023-05-10T01:55:51;4.82;;;4.00;;
41061;SDS011;26812;42.662;23.352;2023-05-10T01:58:27;3.65;;;3.35;;
41061;SDS011;26812;42.662;23.352;2023-05-10T02:00:55;4.07;;;3.13;;
41061;SDS011;26812;42.662;23.352;2023-05-10T02:03:24;4.13;;;3.50;;
41061;SDS011;26812;42.662;23.352;2023-05-10T02:05:51;5.85;;;3.90;;
41061;SDS011;26812;42.662;23.352;2023-05-10T02:08:18;3.30;;;3.00;;
41061;SDS011;26812;42.662;23.352;2023-05-10T02:10:45;4.22;;;3.58;;
41061;SDS011;26812;42.662;23.352;2023-05-10T02:13:13;5.40;;;4.00;;
41061;SDS011;26812;42.662;23.352;2023-05-10T02:15:40;7.22;;;4.03;;
41061;SDS011;26812;42.662;23.352;2023-05-10T02:18:07;3.90;;;3.60;;
41061;SDS011;26812;42.662;23.352;2023-05-10T02:20:35;5.22;;;3.92;;
41061;SDS011;26812;42.662;23.352;2023-05-10T02:23:02;4.25;;;3.85;;
41061;SDS011;26812;42.662;23.352;2023-05-10T02:25:28;4.85;;;3.83;;
41061;SDS011;26812;42.662;23.352;2023-05-10T02:27:55;4.70;;;3.50;;
41061;SDS011;26812;42.662;23.352;2023-05-10T02:30:23;5.32;;;3.83;;
41061;SDS011;26812;42.662;23.352;2023-05-10T02:32:49;5.13;;;4.60;;
41061;SDS011;26812;42.662;23.352;2023-05-10T02:35:16;4.88;;;4.13;;
41061;SDS011;26812;42.662;23.352;2023-05-10T02:37:42;5.57;;;4.22;;
41061;SDS011;26812;42.662;23.352;2023-05-10T02:40:10;8.57;;;4.00;;
41061;SDS011;26812;42.662;23.352;2023-05-10T02:42:36;3.90;;;3.53;;
41061;SDS011;26812;42.662;23.352;2023-05-10T02:45:07;3.38;;;2.80;;
41061;SDS011;26812;42.662;23.352;2023-05-10T02:47:36;4.32;;;3.42;;
41061;SDS011;26812;42.662;23.352;2023-05-10T02:50:02;5.00;;;3.67;;
41061;SDS011;26812;42.662;23.352;2023-05-10T02:52:29;3.65;;;3.35;;
41061;SDS011;26812;42.662;23.352;2023-05-10T02:55:00;2.72;;;2.40;;
41061;SDS011;26812;42.662;23.352;2023-05-10T02:57:33;4.32;;;3.17;;
41061;SDS011;26812;42.662;23.352;2023-05-10T03:00:00;3.55;;;2.95;;
41061;SDS011;26812;42.662;23.352;2023-05-10T03:02:26;5.22;;;3.78;;
41061;SDS011;26812;42.662;23.352;2023-05-10T03:04:52;3.50;;;3.15;;
41061;SDS011;26812;42.662;23.352;2023-05-10T03:07:17;5.03;;;3.65;;
41061;SDS011;26812;42.662;23.352;2023-05-10T03:09:46;3.40;;;2.88;;
41061;SDS011;26812;42.662;23.352;2023-05-10T03:12:15;5.30;;;2.80;;
41061;SDS011;26812;42.662;23.352;2023-05-10T03:15:11;3.83;;;3.42;;
41061;SDS011;26812;42.662;23.352;2023-05-10T03:17:47;4.32;;;3.92;;
41061;SDS011;26812;42.662;23.352;2023-05-10T03:20:21;5.13;;;3.85;;
41061;SDS011;26812;42.662;23.352;2023-05-10T03:23:38;4.65;;;3.70;;
41061;SDS011;26812;42.662;23.352;2023-05-10T03:25:46;3.45;;;3.15;;
41061;SDS011;26812;42.662;23.352;2023-05-10T03:28:14;4.93;;;3.45;;
41061;SDS011;26812;42.662;23.352;2023-05-10T03:30:41;3.45;;;3.10;;
41061;SDS011;26812;42.662;23.352;2023-05-10T03:33:08;4.55;;;3.42;;
41061;SDS011;26812;42.662;23.352;2023-05-10T03:35:33;4.20;;;3.63;;
41061;SDS011;26812;42.662;23.352;2023-05-10T03:37:59;3.72;;;3.28;;
41061;SDS011;26812;42.662;23.352;2023-05-10T03:40:25;3.25;;;2.92;;
41061;SDS011;26812;42.662;23.352;2023-05-10T03:42:54;2.83;;;2.63;;
41061;SDS011;26812;42.662;23.352;2023-05-10T03:45:20;4.03;;;2.85;;
41061;SDS011;26812;42.662;23.352;2023-05-10T03:47:45;4.35;;;3.88;;
41061;SDS011;26812;42.662;23.352;2023-05-10T03:50:10;6.05;;;3.85;;
41061;SDS011;26812;42.662;23.352;2023-05-10T03:52:36;4.90;;;3.55;;
41061;SDS011;26812;42.662;23.352;2023-05-10T03:55:04;5.53;;;3.25;;
41061;SDS011;26812;42.662;23.352;2023-05-10T03:57:30;4.63;;;3.72;;
41061;SDS011;26812;42.662;23.352;2023-05-10T03:59:55;4.10;;;3.22;;
41061;SDS011;26812;42.662;23.352;2023-05-10T04:02:20;5.10;;;3.50;;
41061;SDS011;26812;42.662;23.352;2023-05-10T04:04:46;3.70;;;3.40;;
41061;SDS011;26812;42.662;23.352;2023-05-10T04:07:11;5.47;;;4.03;;
41061;SDS011;26812;42.662;23.352;2023-05-10T04:09:37;4.25;;;3.22;;
41061;SDS011;26812;42.662;23.352;2023-05-10T04:12:02;4.22;;;3.50;;
41061;SDS011;26812;42.662;23.352;2023-05-10T04:14:28;4.47;;;3.70;;
41061;SDS011;26812;42.662;23.352;2023-05-10T04:16:53;3.28;;;2.83;;
41061;SDS011;26812;42.662;23.352;2023-05-10T04:19:18;3.60;;;3.05;;
41061;SDS011;26812;42.662;23.352;2023-05-10T04:21:44;5.03;;;3.47;;
41061;SDS011;26812;42.662;23.352;2023-05-10T04:24:10;3.72;;;3.28;;
41061;SDS011;26812;42.662;23.352;2023-05-10T04:26:35;4.55;;;3.35;;
41061;SDS011;26812;42.662;23.352;2023-05-10T04:29:00;4.95;;;3.67;;
41061;SDS011;26812;42.662;23.352;2023-05-10T04:31:26;4.40;;;3.55;;
41061;SDS011;26812;42.662;23.352;2023-05-10T04:33:52;6.40;;;4.03;;
41061;SDS011;26812;42.662;23.352;2023-05-10T04:36:18;4.10;;;3.35;;
41061;SDS011;26812;42.662;23.352;2023-05-10T04:38:43;4.43;;;3.60;;
41061;SDS011;26812;42.662;23.352;2023-05-10T04:41:09;4.25;;;3.63;;
41061;SDS011;26812;42.662;23.352;2023-05-10T04:43:36;4.47;;;3.65;;
41061;SDS011;26812;42.662;23.352;2023-05-10T04:46:02;5.35;;;3.28;;
41061;SDS011;26812;42.662;23.352;2023-05-10T04:48:28;5.22;;;3.58;;
41061;SDS011;26812;42.662;23.352;2023-05-10T04:50:53;6.05;;;4.13;;
41061;SDS011;26812;42.662;23.352;2023-05-10T04:53:19;4.55;;;3.58;;
41061;SDS011;26812;42.662;23.352;2023-05-10T04:55:44;4.30;;;3.60;;
41061;SDS011;26812;42.662;23.352;2023-05-10T04:58:10;3.80;;;3.38;;
41061;SDS011;26812;42.662;23.352;2023-05-10T05:00:35;5.47;;;3.53;;
41061;SDS011;26812;42.662;23.352;2023-05-10T05:03:01;3.75;;;3.38;;
41061;SDS011;26812;42.662;23.352;2023-05-10T05:05:26;4.43;;;3.90;;
41061;SDS011;26812;42.662;23.352;2023-05-10T05:07:52;4.80;;;4.00;;
41061;SDS011;26812;42.662;23.352;2023-05-10T05:10:17;6.40;;;4.03;;
41061;SDS011;26812;42.662;23.352;2023-05-10T05:12:42;5.63;;;4.93;;
41061;SDS011;26812;42.662;23.352;2023-05-10T05:15:08;5.53;;;3.60;;
41061;SDS011;26812;42.662;23.352;2023-05-10T05:17:34;12.27;;;4.32;;
41061;SDS011;26812;42.662;23.352;2023-05-10T05:20:00;5.75;;;4.32;;
41061;SDS011;26812;42.662;23.352;2023-05-10T05:22:26;6.05;;;4.00;;
41061;SDS011;26812;42.662;23.352;2023-05-10T05:24:54;5.82;;;4.10;;
41061;SDS011;26812;42.662;23.352;2023-05-10T05:27:20;6.22;;;5.07;;
41061;SDS011;26812;42.662;23.352;2023-05-10T05:29:52;5.55;;;4.63;;
41061;SDS011;26812;42.662;23.352;2023-05-10T05:32:19;4.60;;;4.07;;
41061;SDS011;26812;42.662;23.352;2023-05-10T05:34:44;6.15;;;4.28;;
41061;SDS011;26812;42.662;23.352;2023-05-10T05:37:14;5.90;;;4.68;;
41061;SDS011;26812;42.662;23.352;2023-05-10T05:39:46;7.18;;;5.53;;
41061;SDS011;26812;42.662;23.352;2023-05-10T05:42:12;6.40;;;4.30;;
41061;SDS011;26812;42.662;23.352;2023-05-10T05:44:38;5.07;;;4.32;;
41061;SDS011;26812;42.662;23.352;2023-05-10T05:47:04;5.47;;;4.80;;
41061;SDS011;26812;42.662;23.352;2023-05-10T05:49:30;5.78;;;4.45;;
41061;SDS011;26812;42.662;23.352;2023-05-10T05:51:59;6.18;;;4.63;;
41061;SDS011;26812;42.662;23.352;2023-05-10T05:54:25;4.50;;;4.10;;
41061;SDS011;26812;42.662;23.352;2023-05-10T05:56:53;7.60;;;4.90;;
41061;SDS011;26812;42.662;23.352;2023-05-10T05:59:20;5.47;;;4.38;;
41061;SDS011;26812;42.662;23.352;2023-05-10T06:01:45;6.72;;;5.55;;
41061;SDS011;26812;42.662;23.352;2023-05-10T06:04:11;9.07;;;5.72;;
41061;SDS011;26812;42.662;23.352;2023-05-10T06:06:37;6.13;;;4.65;;
41061;SDS011;26812;42.662;23.352;2023-05-10T06:09:02;6.10;;;5.50;;
41061;SDS011;26812;42.662;23.352;2023-05-10T06:11:28;6.80;;;4.95;;
41061;SDS011;26812;42.662;23.352;2023-05-10T06:13:53;6.20;;;4.88;;
41061;SDS011;26812;42.662;23.352;2023-05-10T06:16:18;5.72;;;4.28;;
41061;SDS011;26812;42.662;23.352;2023-05-10T06:18:44;6.03;;;5.07;;
41061;SDS011;26812;42.662;23.352;2023-05-10T06:21:09;5.07;;;4.35;;
41061;SDS011;26812;42.662;23.352;2023-05-10T06:23:35;5.88;;;5.10;;
41061;SDS011;26812;42.662;23.352;2023-05-10T06:26:00;8.32;;;5.38;;
41061;SDS011;26812;42.662;23.352;2023-05-10T06:28:26;8.48;;;6.10;;
41061;SDS011;26812;42.662;23.352;2023-05-10T06:30:51;7.80;;;5.30;;
41061;SDS011;26812;42.662;23.352;2023-05-10T06:33:17;6.00;;;5.40;;
41061;SDS011;26812;42.662;23.352;2023-05-10T06:35:42;7.45;;;5.95;;
41061;SDS011;26812;42.662;23.352;2023-05-10T06:38:07;8.02;;;4.15;;
41061;SDS011;26812;42.662;23.352;2023-05-10T06:40:33;8.15;;;4.95;;
41061;SDS011;26812;42.662;23.352;2023-05-10T06:42:58;7.18;;;5.32;;
41061;SDS011;26812;42.662;23.352;2023-05-10T06:45:24;9.10;;;4.95;;
41061;SDS011;26812;42.662;23.352;2023-05-10T06:47:49;8.02;;;5.13;;
41061;SDS011;26812;42.662;23.352;2023-05-10T06:50:15;10.52;;;5.30;;
41061;SDS011;26812;42.662;23.352;2023-05-10T06:52:40;9.40;;;5.20;;
41061;SDS011;26812;42.662;23.352;2023-05-10T06:55:13;9.32;;;5.45;;
41061;SDS011;26812;42.662;23.352;2023-05-10T06:57:38;7.97;;;5.30;;
41061;SDS011;26812;42.662;23.352;2023-05-10T07:00:03;8.07;;;4.72;;
41061;SDS011;26812;42.662;23.352;2023-05-10T07:02:29;8.73;;;5.43;;
41061;SDS011;26812;42.662;23.352;2023-05-10T07:04:55;7.07;;;5.53;;
41061;SDS011;26812;42.662;23.352;2023-05-10T07:07:20;6.93;;;5.53;;
41061;SDS011;26812;42.662;23.352;2023-05-10T07:09:46;7.80;;;5.40;;
41061;SDS011;26812;42.662;23.352;2023-05-10T07:12:11;7.05;;;5.45;;
41061;SDS011;26812;42.662;23.352;2023-05-10T07:14:37;5.75;;;4.85;;
41061;SDS011;26812;42.662;23.352;2023-05-10T07:17:02;9.63;;;6.35;;
41061;SDS011;26812;42.662;23.352;2023-05-10T07:19:27;8.57;;;5.22;;
41061;SDS011;26812;42.662;23.352;2023-05-10T07:21:54;7.22;;;5.35;;
41061;SDS011;26812;42.662;23.352;2023-05-10T07:24:20;5.85;;;4.38;;
41061;SDS011;26812;42.662;23.352;2023-05-10T07:26:45;6.78;;;4.45;;
41061;SDS011;26812;42.662;23.352;2023-05-10T07:29:11;7.25;;;4.97;;
41061;SDS011;26812;42.662;23.352;2023-05-10T07:31:36;6.68;;;5.00;;
41061;SDS011;26812;42.662;23.352;2023-05-10T07:34:02;7.82;;;5.72;;
41061;SDS011;26812;42.662;23.352;2023-05-10T07:36:27;8.90;;;5.75;;
41061;SDS011;26812;42.662;23.352;2023-05-10T07:38:53;7.00;;;5.32;;
41061;SDS011;26812;42.662;23.352;2023-05-10T07:41:19;9.18;;;6.40;;
41061;SDS011;26812;42.662;23.352;2023-05-10T07:43:46;9.52;;;5.78;;
41061;SDS011;26812;42.662;23.352;2023-05-10T07:46:11;8.15;;;5.72;;
41061;SDS011;26812;42.662;23.352;2023-05-10T07:48:37;7.43;;;5.68;;
41061;SDS011;26812;42.662;23.352;2023-05-10T07:51:08;6.90;;;4.95;;
41061;SDS011;26812;42.662;23.352;2023-05-10T07:53:34;7.15;;;6.28;;
41061;SDS011;26812;42.662;23.352;2023-05-10T07:56:19;7.70;;;6.25;;
41061;SDS011;26812;42.662;23.352;2023-05-10T07:58:54;11.15;;;5.93;;
41061;SDS011;26812;42.662;23.352;2023-05-10T08:01:20;10.00;;;7.43;;
41061;SDS011;26812;42.662;23.352;2023-05-10T08:03:46;7.85;;;5.82;;
41061;SDS011;26812;42.662;23.352;2023-05-10T08:06:12;6.88;;;6.10;;
41061;SDS011;26812;42.662;23.352;2023-05-10T08:08:37;8.52;;;6.32;;
41061;SDS011;26812;42.662;23.352;2023-05-10T08:11:03;9.30;;;6.93;;
41061;SDS011;26812;42.662;23.352;2023-05-10T08:13:42;8.30;;;5.57;;
41061;SDS011;26812;42.662;23.352;2023-05-10T08:16:08;7.88;;;6.00;;
41061;SDS011;26812;42.662;23.352;2023-05-10T08:18:34;8.57;;;5.78;;
41061;SDS011;26812;42.662;23.352;2023-05-10T08:20:59;8.70;;;6.25;;
41061;SDS011;26812;42.662;23.352;2023-05-10T08:23:25;8.98;;;6.35;;
41061;SDS011;26812;42.662;23.352;2023-05-10T08:25:50;9.98;;;6.57;;
41061;SDS011;26812;42.662;23.352;2023-05-10T08:28:16;8.80;;;6.78;;
41061;SDS011;26812;42.662;23.352;2023-05-10T08:30:41;8.15;;;6.57;;
41061;SDS011;26812;42.662;23.352;2023-05-10T08:33:07;7.43;;;6.18;;
41061;SDS011;26812;42.662;23.352;2023-05-10T08:35:32;7.72;;;5.65;;
41061;SDS011;26812;42.662;23.352;2023-05-10T08:37:59;8.13;;;5.57;;
41061;SDS011;26812;42.662;23.352;2023-05-10T08:40:25;7.70;;;5.75;;
41061;SDS011;26812;42.662;23.352;2023-05-10T08:42:53;7.20;;;5.97;;
41061;SDS011;26812;42.662;23.352;2023-05-10T08:45:30;8.75;;;6.40;;
41061;SDS011;26812;42.662;23.352;2023-05-10T08:47:58;8.15;;;6.40;;
41061;SDS011;26812;42.662;23.352;2023-05-10T08:50:26;8.55;;;7.07;;
41061;SDS011;26812;42.662;23.352;2023-05-10T08:52:52;7.15;;;6.32;;
41061;SDS011;26812;42.662;23.352;2023-05-10T08:55:23;8.98;;;6.47;;
41061;SDS011;26812;42.662;23.352;2023-05-10T08:57:49;7.85;;;6.40;;
41061;SDS011;26812;42.662;23.352;2023-05-10T09:00:15;9.10;;;6.53;;
41061;SDS011;26812;42.662;23.352;2023-05-10T09:02:43;8.90;;;6.90;;
41061;SDS011;26812;42.662;23.352;2023-05-10T09:05:09;6.70;;;5.50;;
41061;SDS011;26812;42.662;23.352;2023-05-10T09:07:35;7.55;;;6.30;;
41061;SDS011;26812;42.662;23.352;2023-05-10T09:10:01;8.15;;;6.45;;
41061;SDS011;26812;42.662;23.352;2023-05-10T09:12:27;7.82;;;6.20;;
41061;SDS011;26812;42.662;23.352;2023-05-10T09:14:53;9.55;;;5.88;;
41061;SDS011;26812;42.662;23.352;2023-05-10T09:17:20;10.55;;;6.95;;
41061;SDS011;26812;42.662;23.352;2023-05-10T09:19:48;8.43;;;6.18;;
41061;SDS011;26812;42.662;23.352;2023-05-10T09:22:13;7.82;;;5.88;;
41061;SDS011;26812;42.662;23.352;2023-05-10T09:24:39;9.43;;;6.72;;
41061;SDS011;26812;42.662;23.352;2023-05-10T09:27:10;10.55;;;6.68;;
41061;SDS011;26812;42.662;23.352;2023-05-10T09:29:39;10.50;;;6.65;;
41061;SDS011;26812;42.662;23.352;2023-05-10T09:32:05;9.02;;;7.35;;
41061;SDS011;26812;42.662;23.352;2023-05-10T09:34:31;8.60;;;6.13;;
41061;SDS011;26812;42.662;23.352;2023-05-10T09:36:58;10.88;;;7.07;;
41061;SDS011;26812;42.662;23.352;2023-05-10T09:39:31;8.38;;;7.00;;
41061;SDS011;26812;42.662;23.352;2023-05-10T09:42:06;9.93;;;7.43;;
41061;SDS011;26812;42.662;23.352;2023-05-10T09:44:34;9.30;;;6.78;;
41061;SDS011;26812;42.662;23.352;2023-05-10T09:47:00;8.07;;;7.30;;
41061;SDS011;26812;42.662;23.352;2023-05-10T09:49:26;9.98;;;7.25;;
41061;SDS011;26812;42.662;23.352;2023-05-10T09:52:05;8.70;;;5.97;;
41061;SDS011;26812;42.662;23.352;2023-05-10T09:54:33;8.23;;;6.45;;
41061;SDS011;26812;42.662;23.352;2023-05-10T09:56:59;8.05;;;6.72;;
41061;SDS011;26812;42.662;23.352;2023-05-10T09:59:26;9.00;;;6.45;;
41061;SDS011;26812;42.662;23.352;2023-05-10T10:01:53;10.90;;;7.05;;
41061;SDS011;26812;42.662;23.352;2023-05-10T10:04:20;7.55;;;5.60;;
41061;SDS011;26812;42.662;23.352;2023-05-10T10:06:46;8.80;;;6.82;;
41061;SDS011;26812;42.662;23.352;2023-05-10T10:09:22;7.07;;;5.75;;
41061;SDS011;26812;42.662;23.352;2023-05-10T10:11:49;6.10;;;5.45;;
41061;SDS011;26812;42.662;23.352;2023-05-10T10:14:22;8.88;;;5.65;;
41061;SDS011;26812;42.662;23.352;2023-05-10T10:16:49;8.05;;;6.22;;
41061;SDS011;26812;42.662;23.352;2023-05-10T10:19:16;9.90;;;5.95;;
41061;SDS011;26812;42.662;23.352;2023-05-10T10:21:43;7.30;;;5.13;;
41061;SDS011;26812;42.662;23.352;2023-05-10T10:24:08;6.65;;;5.95;;
41061;SDS011;26812;42.662;23.352;2023-05-10T10:26:33;8.88;;;6.55;;
41061;SDS011;26812;42.662;23.352;2023-05-10T10:34:38;9.02;;;6.22;;
41061;SDS011;26812;42.662;23.352;2023-05-10T10:37:05;6.80;;;5.25;;
41061;SDS011;26812;42.662;23.352;2023-05-10T10:39:34;6.57;;;5.65;;
41061;SDS011;26812;42.662;23.352;2023-05-10T10:42:01;7.82;;;5.68;;
41061;SDS011;26812;42.662;23.352;2023-05-10T10:49:30;8.82;;;5.28;;
41061;SDS011;26812;42.662;23.352;2023-05-10T10:57:22;5.90;;;5.30;;
41061;SDS011;26812;42.662;23.352;2023-05-10T10:59:48;8.23;;;5.53;;
41061;SDS011;26812;42.662;23.352;2023-05-10T11:02:34;7.97;;;5.90;;
41061;SDS011;26812;42.662;23.352;2023-05-10T11:07:55;8.05;;;4.53;;
41061;SDS011;26812;42.662;23.352;2023-05-10T11:10:22;7.03;;;5.25;;
41061;SDS011;26812;42.662;23.352;2023-05-10T11:15:37;6.63;;;5.10;;
41061;SDS011;26812;42.662;23.352;2023-05-10T11:20:43;5.05;;;4.55;;
41061;SDS011;26812;42.662;23.352;2023-05-10T11:23:12;6.53;;;5.05;;
41061;SDS011;26812;42.662;23.352;2023-05-10T11:25:43;5.97;;;4.72;;
41061;SDS011;26812;42.662;23.352;2023-05-10T11:28:10;5.00;;;4.50;;
41061;SDS011;26812;42.662;23.352;2023-05-10T11:30:39;6.00;;;4.75;;
41061;SDS011;26812;42.662;23.352;2023-05-10T11:33:06;5.95;;;5.25;;
41061;SDS011;26812;42.662;23.352;2023-05-10T11:35:39;6.05;;;5.32;;
41061;SDS011;26812;42.662;23.352;2023-05-10T11:38:12;7.68;;;5.20;;
41061;SDS011;26812;42.662;23.352;2023-05-10T11:40:38;8.73;;;5.65;;
41061;SDS011;26812;42.662;23.352;2023-05-10T11:43:04;8.05;;;6.60;;
41061;SDS011;26812;42.662;23.352;2023-05-10T11:48:22;5.97;;;5.03;;
41061;SDS011;26812;42.662;23.352;2023-05-10T11:50:49;6.57;;;5.15;;
41061;SDS011;26812;42.662;23.352;2023-05-10T11:53:15;6.25;;;5.13;;
41061;SDS011;26812;42.662;23.352;2023-05-10T11:55:40;7.22;;;5.60;;
41061;SDS011;26812;42.662;23.352;2023-05-10T11:58:05;8.40;;;5.65;;
41061;SDS011;26812;42.662;23.352;2023-05-10T12:00:31;8.20;;;5.32;;
41061;SDS011;26812;42.662;23.352;2023-05-10T12:02:57;6.53;;;5.25;;
41061;SDS011;26812;42.662;23.352;2023-05-10T12:05:35;5.82;;;5.22;;
41061;SDS011;26812;42.662;23.352;2023-05-10T12:08:11;8.95;;;7.20;;
41061;SDS011;26812;42.662;23.352;2023-05-10T12:10:37;6.40;;;5.75;;
41061;SDS011;26812;42.662;23.352;2023-05-10T12:13:03;6.38;;;5.60;;
41061;SDS011;26812;42.662;23.352;2023-05-10T12:15:35;6.20;;;5.60;;
41061;SDS011;26812;42.662;23.352;2023-05-10T12:18:00;7.35;;;5.43;;
41061;SDS011;26812;42.662;23.352;2023-05-10T12:20:27;6.35;;;5.00;;
41061;SDS011;26812;42.662;23.352;2023-05-10T12:22:54;7.38;;;5.85;;
41061;SDS011;26812;42.662;23.352;2023-05-10T12:25:21;6.78;;;4.90;;
41061;SDS011;26812;42.662;23.352;2023-05-10T12:27:52;6.57;;;4.88;;
41061;SDS011;26812;42.662;23.352;2023-05-10T12:30:20;8.27;;;5.63;;
41061;SDS011;26812;42.662;23.352;2023-05-10T12:32:53;7.85;;;5.45;;
41061;SDS011;26812;42.662;23.352;2023-05-10T12:35:19;6.78;;;5.03;;
41061;SDS011;26812;42.662;23.352;2023-05-10T12:37:49;7.43;;;6.05;;
41061;SDS011;26812;42.662;23.352;2023-05-10T12:40:16;6.65;;;5.25;;
41061;SDS011;26812;42.662;23.352;2023-05-10T12:42:41;5.25;;;4.75;;
41061;SDS011;26812;42.662;23.352;2023-05-10T12:45:07;8.15;;;5.18;;
41061;SDS011;26812;42.662;23.352;2023-05-10T12:47:33;6.88;;;4.80;;
41061;SDS011;26812;42.662;23.352;2023-05-10T12:49:59;9.40;;;6.47;;
41061;SDS011;26812;42.662;23.352;2023-05-10T12:52:26;5.45;;;4.63;;
41061;SDS011;26812;42.662;23.352;2023-05-10T12:54:52;10.10;;;5.50;;
41061;SDS011;26812;42.662;23.352;2023-05-10T12:57:20;5.38;;;4.82;;
41061;SDS011;26812;42.662;23.352;2023-05-10T12:59:46;6.47;;;5.78;;
41061;SDS011;26812;42.662;23.352;2023-05-10T13:02:11;6.75;;;5.47;;
41061;SDS011;26812;42.662;23.352;2023-05-10T13:04:37;6.25;;;5.07;;
41061;SDS011;26812;42.662;23.352;2023-05-10T13:07:05;5.65;;;4.20;;
41061;SDS011;26812;42.662;23.352;2023-05-10T13:09:34;10.32;;;5.70;;
41061;SDS011;26812;42.662;23.352;2023-05-10T13:11:59;6.00;;;5.40;;
41061;SDS011;26812;42.662;23.352;2023-05-10T13:14:25;5.63;;;4.78;;
41061;SDS011;26812;42.662;23.352;2023-05-10T13:16:50;7.85;;;4.93;;
41061;SDS011;26812;42.662;23.352;2023-05-10T13:19:16;7.25;;;4.40;;
41061;SDS011;26812;42.662;23.352;2023-05-10T13:21:42;6.68;;;4.78;;
41061;SDS011;26812;42.662;23.352;2023-05-10T13:24:09;7.63;;;5.32;;
41061;SDS011;26812;42.662;23.352;2023-05-10T13:26:35;5.25;;;4.28;;
41061;SDS011;26812;42.662;23.352;2023-05-10T13:29:01;5.38;;;4.78;;
41061;SDS011;26812;42.662;23.352;2023-05-10T13:31:27;5.03;;;4.55;;
41061;SDS011;26812;42.662;23.352;2023-05-10T13:33:53;8.70;;;4.90;;
41061;SDS011;26812;42.662;23.352;2023-05-10T13:36:18;6.50;;;4.80;;
41061;SDS011;26812;42.662;23.352;2023-05-10T13:38:43;5.63;;;4.93;;
41061;SDS011;26812;42.662;23.352;2023-05-10T13:41:09;7.80;;;6.38;;
41061;SDS011;26812;42.662;23.352;2023-05-10T13:43:35;6.07;;;4.22;;
41061;SDS011;26812;42.662;23.352;2023-05-10T13:46:01;5.38;;;4.32;;
41061;SDS011;26812;42.662;23.352;2023-05-10T13:48:26;7.15;;;4.28;;
41061;SDS011;26812;42.662;23.352;2023-05-10T13:50:52;8.05;;;4.50;;
41061;SDS011;26812;42.662;23.352;2023-05-10T13:53:17;6.72;;;4.38;;
41061;SDS011;26812;42.662;23.352;2023-05-10T13:55:43;5.25;;;4.32;;
41061;SDS011;26812;42.662;23.352;2023-05-10T13:58:08;5.43;;;4.35;;
41061;SDS011;26812;42.662;23.352;2023-05-10T14:00:34;6.85;;;5.13;;
41061;SDS011;26812;42.662;23.352;2023-05-10T14:02:59;5.18;;;4.68;;
41061;SDS011;26812;42.662;23.352;2023-05-10T14:05:25;6.50;;;5.03;;
41061;SDS011;26812;42.662;23.352;2023-05-10T14:07:50;7.78;;;4.97;;
41061;SDS011;26812;42.662;23.352;2023-05-10T14:10:16;8.73;;;4.95;;
41061;SDS011;26812;42.662;23.352;2023-05-10T14:12:42;6.45;;;4.68;;
41061;SDS011;26812;42.662;23.352;2023-05-10T14:15:13;6.10;;;4.95;;
41061;SDS011;26812;42.662;23.352;2023-05-10T14:17:39;4.47;;;4.07;;
41061;SDS011;26812;42.662;23.352;2023-05-10T14:20:04;7.30;;;4.65;;
41061;SDS011;26812;42.662;23.352;2023-05-10T14:22:30;9.18;;;4.50;;
41061;SDS011;26812;42.662;23.352;2023-05-10T14:24:56;5.15;;;4.20;;
41061;SDS011;26812;42.662;23.352;2023-05-10T14:27:21;8.02;;;4.55;;
41061;SDS011;26812;42.662;23.352;2023-05-10T14:29:47;6.43;;;5.25;;
41061;SDS011;26812;42.662;23.352;2023-05-10T14:32:12;9.20;;;4.93;;
41061;SDS011;26812;42.662;23.352;2023-05-10T14:34:38;6.43;;;4.80;;
41061;SDS011;26812;42.662;23.352;2023-05-10T14:37:03;6.40;;;5.22;;
41061;SDS011;26812;42.662;23.352;2023-05-10T14:39:29;7.32;;;5.28;;
41061;SDS011;26812;42.662;23.352;2023-05-10T14:41:55;8.15;;;5.05;;
41061;SDS011;26812;42.662;23.352;2023-05-10T14:44:21;7.40;;;4.88;;
41061;SDS011;26812;42.662;23.352;2023-05-10T14:46:46;7.53;;;5.50;;
41061;SDS011;26812;42.662;23.352;2023-05-10T14:49:13;8.02;;;5.25;;
41061;SDS011;26812;42.662;23.352;2023-05-10T14:51:38;8.73;;;5.65;;
41061;SDS011;26812;42.662;23.352;2023-05-10T14:54:04;7.35;;;5.00;;
41061;SDS011;26812;42.662;23.352;2023-05-10T14:56:29;8.00;;;4.97;;
41061;SDS011;26812;42.662;23.352;2023-05-10T14:58:55;5.97;;;4.97;;
41061;SDS011;26812;42.662;23.352;2023-05-10T15:01:20;6.78;;;4.68;;
41061;SDS011;26812;42.662;23.352;2023-05-10T15:03:46;5.03;;;4.25;;
41061;SDS011;26812;42.662;23.352;2023-05-10T15:06:13;6.50;;;4.93;;
41061;SDS011;26812;42.662;23.352;2023-05-10T15:08:39;9.68;;;4.82;;
41061;SDS011;26812;42.662;23.352;2023-05-10T15:11:06;5.93;;;4.75;;
41061;SDS011;26812;42.662;23.352;2023-05-10T15:13:31;6.97;;;5.28;;